createdAt,value
2023-02-06T00:02:01.807Z,1220
2023-02-06T00:07:20.316Z,1224
2023-02-06T00:12:39.268Z,1218
2023-02-06T00:17:57.926Z,1212
2023-02-06T00:23:16.444Z,1222
2023-02-06T00:28:35.019Z,1229
2023-02-06T00:33:53.511Z,1221
2023-02-06T00:39:11.550Z,1230
2023-02-06T00:44:29.755Z,1247
2023-02-06T00:49:47.972Z,1282
2023-02-06T00:55:07.021Z,1305
2023-02-06T01:00:25.778Z,1331
2023-02-06T01:05:44.288Z,1373
2023-02-06T01:11:02.775Z,1366
2023-02-06T01:16:20.753Z,1359
2023-02-06T01:21:39.002Z,1372
2023-02-06T01:27:03.009Z,1378
2023-02-06T01:32:27.029Z,1388
2023-02-06T01:37:45.713Z,1406
2023-02-06T01:43:03.963Z,1414
2023-02-06T01:48:21.946Z,1412
2023-02-06T01:53:40.337Z,1406
2023-02-06T01:58:59.128Z,1419
2023-02-06T02:04:17.039Z,1427
2023-02-06T02:09:35.520Z,1427
2023-02-06T02:14:53.472Z,1440
2023-02-06T02:20:11.687Z,1438
2023-02-06T02:25:30.176Z,1423
2023-02-06T02:30:48.755Z,1413
2023-02-06T02:36:07.097Z,1411
2023-02-06T02:41:25.313Z,1418
2023-02-06T02:46:44.098Z,1419
2023-02-06T02:52:02.272Z,1422
2023-02-06T02:57:20.477Z,1427
2023-02-06T03:02:38.736Z,1426
2023-02-06T03:07:56.946Z,1419
2023-02-06T03:13:15.318Z,1415
2023-02-06T03:18:34.118Z,1415
2023-02-06T03:23:52.016Z,1410
2023-02-06T03:29:10.298Z,1403
2023-02-06T03:34:28.999Z,1407
2023-02-06T03:39:47.495Z,1412
2023-02-06T03:45:06.491Z,1412
2023-02-06T03:50:24.988Z,1411
2023-02-06T03:55:43.238Z,1410
2023-02-06T04:01:01.951Z,1406
2023-02-06T04:06:20.687Z,1407
2023-02-06T04:11:39.165Z,1399
2023-02-06T04:16:57.768Z,1406
2023-02-06T04:22:16.311Z,1414
2023-02-06T04:27:34.818Z,1407
2023-02-06T04:32:53.282Z,1409
2023-02-06T04:38:12.084Z,1409
2023-02-06T04:43:30.839Z,1412
2023-02-06T04:48:49.662Z,1429
2023-02-06T04:54:08.419Z,1424
2023-02-06T04:59:26.879Z,1417
2023-02-06T05:04:45.128Z,1423
2023-02-06T05:10:03.257Z,1419
2023-02-06T05:15:21.732Z,1423
2023-02-06T05:20:39.998Z,1410
2023-02-06T05:25:58.505Z,1419
2023-02-06T05:31:17.083Z,1393
2023-02-06T05:36:36.539Z,1399
2023-02-06T05:41:55.326Z,1406
2023-02-06T05:47:13.628Z,1421
2023-02-06T05:52:31.822Z,1427
2023-02-06T05:57:50.628Z,1417
2023-02-06T06:03:09.162Z,1420
2023-02-06T06:08:27.625Z,1429
2023-02-06T06:13:46.241Z,1419
2023-02-06T06:19:04.929Z,1407
2023-02-06T06:24:23.522Z,1407
2023-02-06T06:29:41.797Z,1401
2023-02-06T06:35:00.397Z,1399
2023-02-06T06:40:18.885Z,1395
2023-02-06T06:45:38.025Z,1375
2023-02-06T06:50:57.941Z,1353
2023-02-06T06:56:17.122Z,1347
2023-02-06T07:01:35.509Z,1124
2023-02-06T07:06:54.057Z,1170
2023-02-06T07:12:12.551Z,1171
2023-02-06T07:17:31.113Z,1163
2023-02-06T07:22:34.048Z,1153
2023-02-06T07:27:52.471Z,1149
2023-02-06T07:33:11.080Z,1147
2023-02-06T07:38:29.900Z,1139
2023-02-06T07:43:48.920Z,1127
2023-02-06T07:49:07.907Z,1118
2023-02-06T07:54:26.256Z,1105
2023-02-06T07:59:44.568Z,1093
2023-02-06T08:05:02.797Z,1109
2023-02-06T08:10:21.359Z,1112
2023-02-06T08:15:39.829Z,1104
2023-02-06T08:20:58.689Z,1099
2023-02-06T08:26:17.457Z,1096
2023-02-06T08:31:36.142Z,1094
2023-02-06T08:36:55.182Z,1097
2023-02-06T08:42:13.160Z,1095
2023-02-06T08:47:31.964Z,1097
2023-02-06T08:52:50.204Z,1075
2023-02-06T08:58:08.855Z,1071
2023-02-06T09:03:27.631Z,1070
2023-02-06T09:08:46.151Z,1068
2023-02-06T09:14:04.652Z,1069
2023-02-06T09:19:23.652Z,1069
2023-02-06T09:24:27.557Z,1062
2023-02-06T09:29:46.201Z,1059
2023-02-06T09:35:04.690Z,1062
2023-02-06T09:40:23.270Z,1063
2023-02-06T09:45:41.820Z,1072
2023-02-06T09:51:00.429Z,1085
2023-02-06T09:56:19.194Z,1090
2023-02-06T10:01:37.272Z,1095
2023-02-06T10:06:55.441Z,1101
2023-02-06T10:12:14.005Z,1105
2023-02-06T10:17:32.807Z,1102
2023-02-06T10:22:51.627Z,1113
2023-02-06T10:28:10.501Z,1118
2023-02-06T10:33:29.292Z,1130
2023-02-06T10:38:48.099Z,1130
2023-02-06T10:44:06.658Z,1136
2023-02-06T10:49:26.183Z,1144
2023-02-06T10:54:45.003Z,1139
2023-02-06T11:00:03.831Z,1141
2023-02-06T11:05:22.647Z,1138
2023-02-06T11:10:41.548Z,1145
2023-02-06T11:16:00.360Z,1149
2023-02-06T11:21:18.778Z,1151
2023-02-06T11:26:37.500Z,1155
2023-02-06T11:31:56.321Z,1168
2023-02-06T11:37:14.991Z,1171
2023-02-06T11:42:33.498Z,1167
2023-02-06T11:47:52.366Z,1155
2023-02-06T11:53:11.103Z,1148
2023-02-06T11:58:29.930Z,1148
2023-02-06T12:03:48.856Z,1144
2023-02-06T12:09:07.419Z,1136
2023-02-06T12:14:25.585Z,1145
2023-02-06T12:19:44.347Z,1141
2023-02-06T12:25:02.551Z,1145
2023-02-06T12:30:05.831Z,1142
2023-02-06T12:35:25.109Z,1141
2023-02-06T12:40:43.930Z,1141
2023-02-06T12:46:02.947Z,1149
2023-02-06T12:51:05.836Z,1148
2023-02-06T12:56:09.098Z,1141
2023-02-06T13:01:32.232Z,1132
2023-02-06T13:06:53.120Z,1135
2023-02-06T13:12:11.942Z,1140
2023-02-06T13:17:30.620Z,1139
2023-02-06T13:22:49.112Z,1139
2023-02-06T13:28:07.588Z,1150
2023-02-06T13:33:25.945Z,1156
2023-02-06T13:38:44.779Z,1158
2023-02-06T13:44:03.261Z,1160
2023-02-06T13:49:22.304Z,1141
2023-02-06T13:54:25.468Z,1076
2023-02-06T13:59:28.583Z,1084
2023-02-06T14:04:40.087Z,1094
2023-02-06T14:09:58.288Z,1110
2023-02-06T14:15:01.524Z,1113
2023-02-06T14:20:19.485Z,1116
2023-02-06T14:25:38.925Z,1111
2023-02-06T14:30:58.139Z,1110
2023-02-06T14:36:17.424Z,1101
2023-02-06T14:41:40.310Z,1098
2023-02-06T14:46:59.412Z,1096
2023-02-06T14:52:17.886Z,1090
2023-02-06T14:57:36.442Z,1090
2023-02-06T15:02:55.402Z,1087
2023-02-06T15:08:13.633Z,1086
2023-02-06T15:13:31.969Z,1089
2023-02-06T15:18:50.622Z,1086
2023-02-06T15:24:09.714Z,1075
2023-02-06T15:29:28.498Z,1078
2023-02-06T15:34:47.315Z,1082
2023-02-06T15:40:06.963Z,1082
2023-02-06T15:45:25.878Z,1087
2023-02-06T15:50:44.851Z,1092
2023-02-06T15:55:49.084Z,1093
2023-02-06T16:01:07.958Z,1098
2023-02-06T16:06:26.903Z,1109
2023-02-06T16:11:45.732Z,1122
2023-02-06T16:17:04.269Z,1129
2023-02-06T16:22:23.044Z,1135
2023-02-06T16:27:41.374Z,1135
2023-02-06T16:32:59.852Z,1130
2023-02-06T16:38:18.661Z,1123
2023-02-06T16:43:37.157Z,1131
2023-02-06T16:48:55.970Z,1122
2023-02-06T16:54:14.432Z,1121
2023-02-06T16:59:34.225Z,1117
2023-02-06T17:04:52.809Z,1125
2023-02-06T17:10:11.846Z,1106
2023-02-06T17:15:30.668Z,1090
2023-02-06T17:20:49.270Z,1128
2023-02-06T17:26:08.332Z,1183
2023-02-06T17:31:26.752Z,1198
2023-02-06T17:36:45.820Z,1184
2023-02-06T17:42:04.186Z,1164
2023-02-06T17:47:23.181Z,1189
2023-02-06T17:52:26.369Z,1158
2023-02-06T17:57:45.125Z,1094
2023-02-06T18:03:04.001Z,1054
2023-02-06T18:08:23.001Z,1020
2023-02-06T18:13:25.841Z,971
2023-02-06T18:18:44.732Z,952
2023-02-06T18:24:03.517Z,934
2023-02-06T18:29:22.309Z,920
2023-02-06T18:34:41.064Z,916
2023-02-06T18:40:02.756Z,931
2023-02-06T18:45:21.421Z,945
2023-02-06T18:50:40.641Z,961
2023-02-06T18:55:59.583Z,969
2023-02-06T19:01:17.960Z,984
2023-02-06T19:06:36.886Z,1003
2023-02-06T19:11:55.664Z,1016
2023-02-06T19:17:14.394Z,1035
2023-02-06T19:22:33.161Z,1038
2023-02-06T19:27:51.997Z,1058
2023-02-06T19:33:10.922Z,1072
2023-02-06T19:38:29.704Z,1085
2023-02-06T19:43:48.434Z,1103
2023-02-06T19:49:07.848Z,1119
2023-02-06T19:54:10.746Z,1136
2023-02-06T19:59:29.300Z,1145
2023-02-06T20:04:47.874Z,1156
2023-02-06T20:10:06.341Z,1173
2023-02-06T20:15:25.171Z,1222
2023-02-06T20:20:43.993Z,1246
2023-02-06T20:26:02.820Z,1242
2023-02-06T20:31:21.893Z,1247
2023-02-06T20:36:41.190Z,1213
2023-02-06T20:41:44.345Z,1184
2023-02-06T20:47:02.716Z,1238
2023-02-06T20:52:21.183Z,1273
2023-02-06T20:57:39.696Z,1305
2023-02-06T21:02:58.484Z,1352
2023-02-06T21:08:17.239Z,1371
2023-02-06T21:13:36.074Z,1418
2023-02-06T21:18:54.603Z,1440
2023-02-06T21:24:13.367Z,1454
2023-02-06T21:29:32.518Z,1460
2023-02-06T21:34:51.271Z,1465
2023-02-06T21:40:10.054Z,1473
2023-02-06T21:45:29.410Z,1473
2023-02-06T21:50:47.899Z,1474
2023-02-06T21:56:06.633Z,1471
2023-02-06T22:01:25.763Z,1476
2023-02-06T22:06:44.530Z,1473
2023-02-06T22:12:03.000Z,1485
2023-02-06T22:17:21.790Z,1485
2023-02-06T22:22:40.691Z,1473
2023-02-06T22:27:59.499Z,1520
2023-02-06T22:33:18.459Z,1528
2023-02-06T22:38:37.012Z,1514
2023-02-06T22:43:55.262Z,1522
2023-02-06T22:49:14.022Z,1514
2023-02-06T22:54:32.868Z,1499
2023-02-06T22:59:51.644Z,1486
2023-02-06T23:05:10.427Z,1469
2023-02-06T23:10:29.330Z,1468
2023-02-06T23:15:47.921Z,1472
2023-02-06T23:21:06.403Z,1482
2023-02-06T23:26:24.941Z,1480
2023-02-06T23:31:43.810Z,1480
2023-02-06T23:37:02.791Z,1483
2023-02-06T23:42:21.692Z,1498
2023-02-06T23:47:39.898Z,1522
2023-02-06T23:52:58.664Z,1540
2023-02-06T23:58:17.474Z,1552
